Time;durP1;ratioP1;P1;durP2;ratioP2;P2;SDS_P1;SDS_P2;PMS_P1;PMS_P2;Temp;Humidity;BMP_temperature;BMP_pressure;BME280_temperature;BME280_humidity;BME280_pressure;Samples;Min_cycle;Max_cycle;Signal;HPM_P1;HPM_P2
2021/05/10 00:00:28;;;;;;;6.78;2.50;;;;;;;13.02;61.61;95313.72;4934210;29;20563;-65
2021/05/10 00:02:53;;;;;;;7.10;2.55;;;;;;;13.00;62.81;95320.34;4935085;29;20051;-65
2021/05/10 00:05:19;;;;;;;6.93;2.40;;;;;;;12.92;62.23;95311.16;4934902;29;20047;-65
2021/05/10 00:07:46;;;;;;;6.35;2.38;;;;;;;12.80;62.66;95310.66;4935135;29;20051;-65
2021/05/10 00:10:11;;;;;;;8.15;2.13;;;;;;;12.77;64.14;95306.72;4934965;29;20135;-65
2021/05/10 00:12:37;;;;;;;6.43;2.30;;;;;;;12.76;63.82;95305.16;4933342;29;20134;-65
2021/05/10 00:15:04;;;;;;;6.88;2.45;;;;;;;12.95;63.06;95302.66;4933445;29;20396;-65
2021/05/10 00:17:32;;;;;;;6.85;2.60;;;;;;;13.02;61.85;95302.34;4934561;29;20115;-65
2021/05/10 00:19:57;;;;;;;;;;;;;;;13.14;61.51;95300.19;4939701;29;20047;-65
2021/05/10 00:22:23;;;;;;;8.52;2.50;;;;;;;13.12;62.05;95297.03;4939837;29;19922;-66
2021/05/10 00:24:49;;;;;;;7.75;2.83;;;;;;;13.19;61.20;95288.81;4935763;29;20091;-65
2021/05/10 00:27:15;;;;;;;9.25;3.38;;;;;;;13.07;61.26;95283.84;4934684;29;20040;-65
2021/05/10 00:29:41;;;;;;;9.57;3.50;;;;;;;13.06;60.63;95280.44;4935078;29;20063;-65
2021/05/10 00:32:06;;;;;;;9.60;3.42;;;;;;;13.00;61.10;95278.09;4935076;29;20566;-66
2021/05/10 00:34:32;;;;;;;8.80;3.80;;;;;;;12.91;61.50;95277.09;4934531;29;20545;-65
2021/05/10 00:37:00;;;;;;;9.80;4.00;;;;;;;12.79;61.80;95272.91;4934761;29;20095;-66
2021/05/10 00:39:26;;;;;;;9.38;3.58;;;;;;;12.79;61.63;95272.91;4934582;29;20091;-65
2021/05/10 00:41:54;;;;;;;11.27;3.78;;;;;;;12.72;61.50;95269.81;4934388;29;20048;-64
2021/05/10 00:44:19;;;;;;;10.35;3.70;;;;;;;12.66;62.33;95270.88;4934290;29;20134;-65
2021/05/10 00:46:46;;;;;;;9.32;3.58;;;;;;;12.63;62.85;95268.78;4934882;29;20066;-65
2021/05/10 00:49:12;;;;;;;11.70;4.13;;;;;;;12.78;62.31;95271.34;4936820;29;20559;-64
2021/05/10 00:51:37;;;;;;;9.18;3.72;;;;;;;12.76;62.60;95273.47;4934976;29;20138;-68
2021/05/10 00:54:03;;;;;;;8.57;3.38;;;;;;;12.94;62.67;95272.06;4933378;29;20067;-68
2021/05/10 00:56:29;;;;;;;9.10;3.67;;;;;;;13.00;62.88;95270.97;4934631;29;20040;-68
2021/05/10 00:58:56;;;;;;;8.23;3.22;;;;;;;13.00;62.62;95275.44;4934632;29;20432;-68
2021/05/10 01:01:24;;;;;;;10.27;3.42;;;;;;;13.05;62.58;95285.97;4935875;29;20087;-65
2021/05/10 01:03:54;;;;;;;11.00;3.63;;;;;;;12.88;62.64;95295.06;4935625;29;20070;-67
2021/05/10 01:06:19;;;;;;;11.15;3.50;;;;;;;12.79;62.60;95287.97;4936303;29;20123;-66
2021/05/10 01:08:45;;;;;;;8.27;3.35;;;;;;;12.59;64.93;95288.84;4934615;29;20440;-67
2021/05/10 01:11:11;;;;;;;9.57;3.50;;;;;;;12.46;64.94;95302.63;4934352;29;20055;-66
2021/05/10 01:13:39;;;;;;;8.65;3.70;;;;;;;12.41;64.44;95305.28;4934563;29;20046;-66
2021/05/10 01:16:06;;;;;;;9.80;3.50;;;;;;;12.30;64.95;95297.41;4934592;29;20046;-64
2021/05/10 01:18:33;;;;;;;8.52;3.67;;;;;;;12.32;64.60;95290.03;4949201;29;20157;-64
2021/05/10 01:21:00;;;;;;;10.90;3.72;;;;;;;12.40;64.05;95277.34;4934369;29;20036;-64
2021/05/10 01:23:27;;;;;;;9.77;3.38;;;;;;;12.35;64.79;95288.69;4933234;29;20127;-66
2021/05/10 01:25:53;;;;;;;8.85;3.47;;;;;;;12.25;65.38;95289.50;4937944;29;20131;-65
2021/05/10 01:28:19;;;;;;;8.95;3.08;;;;;;;12.15;66.13;95289.53;4938640;29;20047;-65
2021/05/10 01:30:49;;;;;;;8.88;3.65;;;;;;;12.13;66.17;95296.13;4938623;29;20047;-63
2021/05/10 01:33:17;;;;;;;8.30;3.30;;;;;;;12.22;66.92;95297.19;4938002;29;20126;-63
2021/05/10 01:35:46;;;;;;;9.02;3.75;;;;;;;12.11;66.81;95285.03;4937850;29;20499;-63
2021/05/10 01:38:12;;;;;;;10.57;4.03;;;;;;;12.07;66.83;95277.69;4936495;29;20066;-63
2021/05/10 01:40:39;;;;;;;9.27;3.55;;;;;;;12.00;66.83;95282.47;4937881;29;20054;-64
2021/05/10 01:43:05;;;;;;;10.25;3.78;;;;;;;11.94;66.70;95283.50;4956391;23;20122;-65
2021/05/10 01:45:31;;;;;;;10.85;3.95;;;;;;;11.98;67.14;95270.59;4936532;29;20059;-64
2021/05/10 01:47:59;;;;;;;10.43;4.20;;;;;;;12.05;66.45;95260.53;4937050;29;20044;-65
2021/05/10 01:50:25;;;;;;;10.00;4.53;;;;;;;12.11;65.83;95256.88;4937037;29;20044;-64
2021/05/10 01:52:51;;;;;;;8.85;3.75;;;;;;;12.12;65.79;95258.44;4951757;29;20139;-64
2021/05/10 01:55:17;;;;;;;9.25;3.85;;;;;;;12.18;65.36;95249.44;4937247;29;20512;-64
2021/05/10 01:57:50;;;;;;;9.23;3.45;;;;;;;12.28;64.95;95249.41;4937081;29;20066;-64
2021/05/10 02:00:19;;;;;;;10.23;3.67;;;;;;;12.16;65.51;95256.03;4937049;29;20111;-66
2021/05/10 02:02:45;;;;;;;8.07;3.42;;;;;;;12.03;67.37;95258.19;4937074;29;20070;-65
2021/05/10 02:05:14;;;;;;;8.57;3.05;;;;;;;11.98;68.47;95252.94;4936608;29;20508;-65
2021/05/10 02:07:44;;;;;;;10.10;3.47;;;;;;;11.96;70.49;95254.25;4937277;29;20090;-65
2021/05/10 02:10:12;;;;;;;10.00;4.07;;;;;;;11.90;72.09;95260.59;4935841;29;20169;-64
2021/05/10 02:12:38;;;;;;;10.25;4.00;;;;;;;11.89;73.17;95269.53;4936938;29;20067;-64
2021/05/10 02:15:08;;;;;;;11.75;3.92;;;;;;;11.77;72.96;95275.84;4936796;29;20078;-64
2021/05/10 02:17:37;;;;;;;8.63;3.50;;;;;;;11.66;72.35;95286.69;4935808;29;20055;-67
2021/05/10 02:20:06;;;;;;;8.13;3.70;;;;;;;11.60;73.44;95283.25;4936365;29;20095;-66
2021/05/10 02:22:34;;;;;;;10.02;3.42;;;;;;;11.49;72.46;95276.41;4936556;29;20040;-65
2021/05/10 02:24:59;;;;;;;;;;;;;;;11.45;72.21;95275.34;4936603;29;20459;-62
2021/05/10 02:27:25;;;;;;;8.10;3.50;;;;;;;11.40;72.33;95267.44;4938370;29;19918;-62
2021/05/10 02:29:50;;;;;;;8.70;3.70;;;;;;;11.46;73.18;95269.03;4939795;29;20531;-62
2021/05/10 02:32:19;;;;;;;9.40;4.10;;;;;;;11.46;73.79;95266.41;4938210;29;20098;-62
2021/05/10 02:34:45;;;;;;;11.88;3.80;;;;;;;11.59;73.79;95268.50;4936278;29;20074;-63
2021/05/10 02:37:12;;;;;;;8.77;3.60;;;;;;;11.71;71.79;95263.75;4936133;29;20202;-63
2021/05/10 02:39:41;;;;;;;9.97;3.73;;;;;;;11.63;73.14;95261.66;4935985;29;20495;-66
2021/05/10 02:42:06;;;;;;;9.82;4.07;;;;;;;11.61;72.57;95260.34;4935761;29;20475;-67
2021/05/10 02:44:34;;;;;;;9.98;3.92;;;;;;;11.63;72.79;95259.03;4935579;29;20523;-63
2021/05/10 02:47:00;;;;;;;;;;;;;;;11.61;71.94;95258.50;4934927;29;20484;-63
2021/05/10 02:49:26;;;;;;;9.75;3.75;;;;;;;11.56;71.56;95258.50;4936182;29;20029;-63
2021/05/10 02:51:52;;;;;;;11.30;4.10;;;;;;;11.66;71.16;95255.06;4950305;29;20044;-63
2021/05/10 02:54:18;;;;;;;10.32;4.13;;;;;;;11.74;69.84;95257.97;4935510;29;20058;-63
2021/05/10 02:56:43;;;;;;;8.82;3.83;;;;;;;11.72;70.69;95260.06;4935890;29;20050;-64
2021/05/10 02:59:09;;;;;;;14.15;4.50;;;;;;;11.60;71.21;95267.44;4935704;29;20036;-64
2021/05/10 03:01:34;;;;;;;12.02;4.18;;;;;;;11.57;71.48;95254.81;4935730;29;20048;-64
2021/05/10 03:04:00;;;;;;;11.40;4.32;;;;;;;11.44;71.45;95257.97;4935358;29;20094;-65
2021/05/10 03:06:27;;;;;;;12.40;4.55;;;;;;;11.45;71.83;95255.06;4950290;29;20163;-64
2021/05/10 03:08:52;;;;;;;10.07;4.18;;;;;;;11.52;71.52;95265.38;4950533;29;20067;-64
2021/05/10 03:11:18;;;;;;;10.75;4.25;;;;;;;11.46;72.84;95266.41;4935573;29;20111;-64
2021/05/10 03:13:46;;;;;;;11.18;4.78;;;;;;;11.47;74.65;95262.72;4935672;29;20535;-64
2021/05/10 03:16:11;;;;;;;;;;;;;;;11.29;76.53;95270.06;4936090;29;20044;-63
2021/05/10 03:18:37;;;;;;;11.43;4.03;;;;;;;11.22;74.72;95272.19;4935423;29;19945;-64
2021/05/10 03:21:03;;;;;;;12.80;4.40;;;;;;;11.23;76.01;95279.03;4935524;29;20516;-65
2021/05/10 03:23:29;;;;;;;11.05;4.53;;;;;;;11.10;77.52;95269.03;4935514;29;20044;-64
2021/05/10 03:25:55;;;;;;;11.18;4.40;;;;;;;11.04;76.95;95265.59;4935231;29;20040;-63
2021/05/10 03:28:21;;;;;;;12.50;4.85;;;;;;;11.04;77.87;95270.06;4935257;29;20110;-63
2021/05/10 03:30:46;;;;;;;11.07;4.38;;;;;;;11.08;77.61;95265.06;4934997;29;20124;-63
2021/05/10 03:33:13;;;;;;;9.80;4.20;;;;;;;10.95;77.38;95266.38;4949850;29;20051;-63
2021/05/10 03:35:41;;;;;;;9.82;4.35;;;;;;;10.93;76.92;95271.09;4934957;29;20043;-63
2021/05/10 03:38:07;;;;;;;;;;;;;;;10.87;77.71;95272.94;4935213;29;20468;-64
2021/05/10 03:40:33;;;;;;;11.88;5.00;;;;;;;10.90;77.69;95275.03;4935014;29;20374;-63
2021/05/10 03:42:59;;;;;;;10.57;4.00;;;;;;;11.01;77.74;95278.47;4934690;29;20052;-64
2021/05/10 03:45:25;;;;;;;11.35;4.25;;;;;;;11.12;77.46;95280.06;4934987;29;20051;-65
2021/05/10 03:47:50;;;;;;;12.57;4.38;;;;;;;11.14;77.14;95280.63;4934633;29;20044;-65
2021/05/10 03:50:17;;;;;;;11.07;3.97;;;;;;;11.06;76.60;95294.28;4935407;29;20380;-64
2021/05/10 03:52:44;;;;;;;13.65;4.95;;;;;;;11.10;74.31;95287.44;4935117;29;20052;-63
2021/05/10 03:55:15;;;;;;;11.23;4.22;;;;;;;11.09;76.59;95288.50;4934705;29;20448;-62
2021/05/10 03:57:44;;;;;;;9.07;3.85;;;;;;;11.16;73.05;95298.78;4935133;29;20131;-63
2021/05/10 04:00:13;;;;;;;10.70;4.10;;;;;;;11.18;74.67;95294.81;4934551;29;20036;-62
2021/05/10 04:02:39;;;;;;;8.93;3.63;;;;;;;11.37;72.74;95283.78;4934503;29;20070;-62
2021/05/10 04:10:42;;;;;;;9.98;3.95;;;;;;;11.65;74.19;95317.50;4935138;29;20507;-62
2021/05/10 04:15:53;;;;;;;9.88;3.75;;;;;;;11.79;73.59;95323.81;4934693;29;20403;-64
2021/05/10 04:18:21;;;;;;;10.50;4.13;;;;;;;11.77;72.58;95320.66;4940157;29;20040;-64
2021/05/10 04:20:47;;;;;;;9.90;3.80;;;;;;;11.85;72.17;95326.50;4937910;29;20044;-65
2021/05/10 04:23:16;;;;;;;12.00;4.28;;;;;;;12.01;72.36;95330.69;4954675;29;20040;-64
2021/05/10 04:25:45;;;;;;;10.48;4.38;;;;;;;11.98;71.82;95339.13;4946329;29;20044;-65
2021/05/10 04:28:14;;;;;;;10.90;4.20;;;;;;;12.01;72.41;95336.75;4946959;29;20039;-64
2021/05/10 04:30:40;;;;;;;9.43;4.05;;;;;;;12.16;71.37;95335.13;4941324;29;20059;-65
2021/05/10 04:33:08;;;;;;;12.55;3.95;;;;;;;12.27;70.71;95339.34;4941181;29;20468;-63
2021/05/10 04:35:36;;;;;;;8.65;3.47;;;;;;;12.31;70.17;95345.66;4949571;29;20044;-64
2021/05/10 04:38:07;;;;;;;11.23;3.95;;;;;;;12.46;69.39;95355.38;4941759;29;20071;-65
2021/05/10 04:40:33;;;;;;;11.18;4.00;;;;;;;12.60;69.13;95357.19;4943122;29;20097;-63
2021/05/10 04:42:58;;;;;;;12.35;4.38;;;;;;;12.49;68.61;95346.94;4949746;29;20055;-69
2021/05/10 04:45:25;;;;;;;13.18;5.10;;;;;;;12.47;70.24;95349.81;4946302;28;20028;-67
2021/05/10 04:47:53;;;;;;;10.73;4.70;;;;;;;12.49;67.86;95342.44;4952014;28;20124;-66
2021/05/10 04:50:18;;;;;;;14.18;4.53;;;;;;;12.52;68.52;95343.75;4958871;29;20059;-68
2021/05/10 04:52:47;;;;;;;11.63;4.88;;;;;;;12.54;69.16;95329.25;4958123;28;20039;-68
2021/05/10 04:55:13;;;;;;;11.68;4.50;;;;;;;12.63;68.40;95329.47;4952788;29;20040;-67
2021/05/10 04:57:40;;;;;;;11.40;4.10;;;;;;;12.67;68.28;95327.09;4936037;29;20036;-67
2021/05/10 05:00:08;;;;;;;10.80;4.10;;;;;;;12.73;67.67;95318.09;4939473;29;20036;-70
2021/05/10 05:02:34;;;;;;;11.15;3.90;;;;;;;12.80;66.23;95303.53;4939287;29;20039;-69
2021/05/10 05:05:00;;;;;;;11.55;4.00;;;;;;;12.84;68.18;95299.28;4953823;29;20126;-68
2021/05/10 05:07:26;;;;;;;10.50;3.92;;;;;;;12.99;65.77;95324.03;4946408;29;20074;-66
2021/05/10 05:09:52;;;;;;;9.90;3.45;;;;;;;13.12;65.51;95308.38;4958301;29;20039;-66
2021/05/10 05:12:17;;;;;;;10.00;3.42;;;;;;;13.36;64.80;95329.66;4957754;29;20058;-66
2021/05/10 05:14:43;;;;;;;12.45;3.40;;;;;;;13.51;62.15;95326.13;4954490;29;20135;-64
2021/05/10 05:17:09;;;;;;;8.30;2.95;;;;;;;13.61;60.29;95319.97;4959213;29;20048;-68
2021/05/10 05:19:36;;;;;;;11.18;3.83;;;;;;;13.69;62.34;95332.59;4953799;29;20047;-63
2021/05/10 05:22:06;;;;;;;9.50;3.40;;;;;;;13.75;61.61;95330.69;4948579;29;20035;-70
2021/05/10 05:24:32;;;;;;;10.57;3.70;;;;;;;13.75;61.04;95341.28;4938346;29;20040;-68
2021/05/10 05:27:00;;;;;;;8.70;3.30;;;;;;;13.98;60.04;95345.03;4949438;29;20098;-64
2021/05/10 05:29:26;;;;;;;10.93;3.83;;;;;;;14.00;60.08;95348.22;4941717;29;20043;-64
2021/05/10 05:31:54;;;;;;;10.02;3.38;;;;;;;14.07;60.97;95351.31;4928162;29;20048;-65
2021/05/10 05:34:20;;;;;;;8.70;3.65;;;;;;;14.13;60.70;95347.56;4930851;29;20039;-65
2021/05/10 05:36:47;;;;;;;9.88;4.20;;;;;;;14.21;59.97;95348.81;4936788;29;20040;-66
2021/05/10 05:39:12;;;;;;;8.43;3.67;;;;;;;14.29;59.91;95348.19;4927212;29;20119;-67
2021/05/10 05:41:38;;;;;;;11.73;3.70;;;;;;;14.29;60.60;95345.56;4936908;29;20143;-66
2021/05/10 05:44:05;;;;;;;11.45;4.32;;;;;;;14.37;60.08;95332.50;4934916;29;20048;-66
2021/05/10 05:46:33;;;;;;;10.57;4.00;;;;;;;14.40;60.52;95333.78;4921813;29;20046;-65
2021/05/10 05:48:59;;;;;;;10.88;4.30;;;;;;;14.35;61.16;95339.94;4923305;29;20271;-68
2021/05/10 05:51:25;;;;;;;9.52;4.30;;;;;;;14.26;61.25;95352.22;4920745;29;20044;-68
2021/05/10 05:53:53;;;;;;;11.30;4.55;;;;;;;14.38;61.58;95357.91;4919132;29;20059;-68
2021/05/10 05:56:19;;;;;;;11.88;4.20;;;;;;;14.59;61.87;95355.84;4919898;29;20523;-67
2021/05/10 05:58:48;;;;;;;13.63;4.93;;;;;;;15.07;60.77;95363.78;4920053;29;20036;-69
2021/05/10 06:01:13;;;;;;;12.63;4.25;;;;;;;15.25;60.89;95372.81;4918029;29;20043;-68
2021/05/10 06:03:39;;;;;;;8.88;4.20;;;;;;;15.52;58.76;95371.38;4918422;29;20099;-70
2021/05/10 06:06:07;;;;;;;11.27;4.65;;;;;;;15.88;59.29;95375.13;4920307;29;20507;-69
2021/05/10 06:08:33;;;;;;;11.40;4.60;;;;;;;15.90;56.77;95380.13;4932583;29;20068;-69
2021/05/10 06:11:03;;;;;;;10.63;4.60;;;;;;;16.15;56.07;95378.94;4923747;29;20048;-68
2021/05/10 06:13:29;;;;;;;11.10;4.50;;;;;;;16.15;54.64;95384.25;4920830;29;20075;-68
2021/05/10 06:15:57;;;;;;;12.23;4.60;;;;;;;16.21;54.86;95383.06;4920165;29;20048;-69
2021/05/10 06:18:22;;;;;;;;;;;;;;;15.86;55.98;95382.56;4919902;29;20051;-69
2021/05/10 06:20:50;;;;;;;14.85;5.07;;;;;;;15.76;56.26;95390.66;4918571;29;19923;-69
2021/05/10 06:23:16;;;;;;;12.80;4.80;;;;;;;15.72;57.86;95387.03;4920113;29;20051;-69
2021/05/10 06:25:44;;;;;;;14.38;4.78;;;;;;;15.63;58.08;95404.66;4919712;29;20048;-70
2021/05/10 06:28:13;;;;;;;15.82;5.97;;;;;;;15.68;58.75;95409.88;4920034;29;20119;-70
2021/05/10 06:30:39;;;;;;;11.15;4.90;;;;;;;15.67;59.18;95405.66;4921385;29;20055;-69
2021/05/10 06:33:07;;;;;;;11.27;4.38;;;;;;;15.57;57.95;95411.84;4922276;29;20044;-68
2021/05/10 06:35:33;;;;;;;11.88;4.60;;;;;;;15.54;58.50;95408.97;4919781;29;20507;-68
2021/05/10 06:37:58;;;;;;;13.65;4.82;;;;;;;15.60;57.82;95405.19;4921206;29;20052;-69
2021/05/10 06:40:24;;;;;;;10.93;4.70;;;;;;;15.94;57.37;95397.81;4921303;29;20626;-69
2021/05/10 06:42:49;;;;;;;9.95;4.60;;;;;;;15.98;59.43;95385.56;4923108;29;20060;-68
2021/05/10 06:45:16;;;;;;;12.38;4.60;;;;;;;15.95;57.05;95386.13;4928060;29;20281;-69
2021/05/10 06:47:45;;;;;;;11.55;5.53;;;;;;;16.49;55.97;95384.69;4923263;29;20534;-69
2021/05/10 06:50:12;;;;;;;11.73;4.65;;;;;;;17.13;52.99;95386.72;4924929;29;20036;-70
2021/05/10 06:52:38;;;;;;;11.88;4.78;;;;;;;17.25;52.93;95373.69;4927802;29;20052;-69
2021/05/10 06:55:05;;;;;;;13.05;5.00;;;;;;;17.36;52.85;95367.09;4927488;29;20084;-70
2021/05/10 06:57:31;;;;;;;11.75;4.85;;;;;;;17.76;52.26;95370.75;4928457;29;20123;-69
2021/05/10 06:59:57;;;;;;;10.35;4.43;;;;;;;18.35;50.99;95365.34;4927274;29;20044;-69
2021/05/10 07:02:24;;;;;;;11.32;4.40;;;;;;;18.70;48.51;95368.19;4926741;29;20048;-70
2021/05/10 07:04:50;;;;;;;10.23;4.22;;;;;;;19.15;47.40;95369.56;4925612;29;20072;-69
2021/05/10 07:07:16;;;;;;;13.80;4.53;;;;;;;19.41;47.04;95376.84;4918834;29;20044;-73
2021/05/10 07:09:42;;;;;;;13.35;4.60;;;;;;;19.90;45.14;95370.28;4918873;29;20050;-69
2021/05/10 07:12:08;;;;;;;10.57;4.32;;;;;;;20.04;45.01;95364.81;4918347;29;20048;-69
2021/05/10 07:14:34;;;;;;;11.85;3.70;;;;;;;20.54;43.62;95364.25;4916663;29;20123;-68
2021/05/10 07:16:59;;;;;;;12.38;4.05;;;;;;;20.65;43.73;95370.78;4917963;29;20123;-69
2021/05/10 07:19:26;;;;;;;11.07;3.83;;;;;;;20.74;43.77;95376.13;4917506;29;20046;-69
2021/05/10 07:21:52;;;;;;;9.57;4.00;;;;;;;20.71;43.24;95379.41;4917888;29;20048;-68
2021/05/10 07:24:18;;;;;;;13.82;5.85;;;;;;;20.86;43.39;95394.16;4917617;29;20058;-69
2021/05/10 07:26:44;;;;;;;9.77;4.05;;;;;;;20.88;43.08;95394.63;4918538;29;20044;-70
2021/05/10 07:29:10;;;;;;;10.02;4.55;;;;;;;20.95;42.50;95394.91;4917436;29;20047;-70
2021/05/10 07:31:35;;;;;;;13.50;4.43;;;;;;;21.44;42.15;95395.31;4916373;29;20044;-68
2021/05/10 07:34:05;;;;;;;11.48;5.00;;;;;;;21.95;41.80;95398.69;4918606;29;20127;-70
2021/05/10 07:36:32;;;;;;;8.98;3.40;;;;;;;22.29;40.38;95397.66;4918165;29;20127;-69
2021/05/10 07:38:57;;;;;;;9.20;3.65;;;;;;;22.03;41.37;95389.81;4916796;29;20183;-69
2021/05/10 07:41:23;;;;;;;10.10;3.90;;;;;;;22.08;41.33;95384.28;4939403;23;20044;-64
2021/05/10 07:43:49;;;;;;;11.80;4.00;;;;;;;21.94;41.29;95386.44;4954904;28;20051;-64
2021/05/10 07:46:15;;;;;;;12.52;3.85;;;;;;;21.78;42.58;95377.44;4955180;29;20058;-61
2021/05/10 07:48:40;;;;;;;12.05;3.50;;;;;;;22.56;40.22;95380.22;4955134;28;20050;-64
2021/05/10 07:51:06;;;;;;;11.18;3.40;;;;;;;23.48;37.88;95382.38;4953744;29;20046;-64
2021/05/10 07:53:33;;;;;;;9.05;3.35;;;;;;;23.81;36.58;95376.84;4935656;29;20059;-64
2021/05/10 07:55:59;;;;;;;12.52;3.65;;;;;;;24.13;36.50;95385.00;4935695;29;20407;-63
2021/05/10 07:58:26;;;;;;;13.30;3.97;;;;;;;24.91;35.32;95372.03;4935966;29;20056;-64
2021/05/10 08:00:57;;;;;;;11.07;3.70;;;;;;;25.42;33.92;95388.28;4936447;29;20496;-63
2021/05/10 08:03:26;;;;;;;10.88;2.60;;;;;;;26.40;30.21;95388.75;4935979;29;20469;-63
2021/05/10 08:05:53;;;;;;;11.05;2.28;;;;;;;25.31;31.23;95385.34;4935712;29;20063;-65
2021/05/10 08:08:22;;;;;;;10.07;2.20;;;;;;;24.78;31.76;95372.13;4934857;29;20067;-64
2021/05/10 08:10:49;;;;;;;8.60;2.20;;;;;;;25.73;31.35;95380.09;4936694;29;20055;-63
2021/05/10 08:13:15;;;;;;;;;;;;;;;25.76;30.14;95387.50;4935885;29;20445;-65
2021/05/10 08:15:41;;;;;;;9.13;1.90;;;;;;;26.55;29.50;95383.66;4936030;29;19923;-63
2021/05/10 08:18:07;;;;;;;5.47;1.73;;;;;;;26.59;28.50;95376.44;4935372;29;20044;-63
2021/05/10 08:20:33;;;;;;;8.95;1.55;;;;;;;27.46;27.31;95382.84;4934749;29;20040;-63
2021/05/10 08:22:59;;;;;;;9.05;1.92;;;;;;;27.51;27.71;95373.66;4935035;29;20047;-63
2021/05/10 08:25:25;;;;;;;5.28;1.45;;;;;;;27.34;27.41;95378.44;4936280;29;20048;-64
2021/05/10 08:27:51;;;;;;;5.25;1.70;;;;;;;27.08;28.44;95381.91;4935781;29;20389;-63
2021/05/10 08:30:17;;;;;;;8.27;2.47;;;;;;;26.68;29.29;95383.13;4935826;29;20047;-63
2021/05/10 08:32:43;;;;;;;8.73;2.00;;;;;;;27.03;28.24;95376.00;4935491;29;20056;-63
2021/05/10 08:35:10;;;;;;;8.15;1.70;;;;;;;26.73;28.37;95373.97;4935234;29;20123;-63
2021/05/10 08:37:36;;;;;;;6.25;1.70;;;;;;;26.53;27.67;95361.66;4935516;29;20500;-64
2021/05/10 08:40:06;;;;;;;4.93;1.50;;;;;;;27.37;26.48;95379.63;4933610;29;20036;-63
2021/05/10 08:42:32;;;;;;;3.78;1.25;;;;;;;27.83;25.89;95361.38;4934519;29;20044;-63
2021/05/10 08:45:00;;;;;;;5.45;1.30;;;;;;;28.16;24.85;95371.44;4935044;29;20129;-65
2021/05/10 08:47:32;;;;;;;9.75;1.60;;;;;;;28.37;24.98;95365.50;4935404;29;20127;-63
2021/05/10 08:49:58;;;;;;;7.80;1.60;;;;;;;28.94;24.56;95359.84;4935468;29;20177;-64
2021/05/10 08:52:24;;;;;;;7.10;1.50;;;;;;;28.19;24.22;95356.38;4935388;29;20068;-65
2021/05/10 08:54:49;;;;;;;7.20;1.55;;;;;;;28.92;23.48;95362.91;4935047;29;20044;-63
2021/05/10 08:57:15;;;;;;;5.72;1.48;;;;;;;29.15;23.44;95360.03;4935633;29;20047;-63
2021/05/10 08:59:43;;;;;;;7.18;1.40;;;;;;;29.57;22.51;95352.59;4934946;29;20058;-64
2021/05/10 09:02:10;;;;;;;8.88;1.70;;;;;;;29.42;23.50;95360.59;4935534;29;20048;-64
2021/05/10 09:04:37;;;;;;;3.97;1.20;;;;;;;29.30;22.20;95344.66;4935119;29;20047;-64
2021/05/10 09:07:17;;;;;;;4.07;1.30;;;;;;;29.49;22.40;95347.09;4950294;29;20047;-64
2021/05/10 09:09:51;;;;;;;4.18;1.42;;;;;;;29.30;22.39;95344.66;4935872;29;20424;-64
2021/05/10 09:12:18;;;;;;;4.13;1.27;;;;;;;28.65;22.83;95337.16;4935210;29;20040;-63
2021/05/10 09:14:43;;;;;;;6.25;1.45;;;;;;;28.71;23.10;95338.38;4935334;29;20059;-63
2021/05/10 09:17:10;;;;;;;4.25;1.40;;;;;;;28.49;22.71;95334.69;4935186;29;20052;-64
2021/05/10 09:19:40;;;;;;;6.63;1.60;;;;;;;28.26;23.07;95332.13;4935417;29;20079;-64
2021/05/10 09:22:06;;;;;;;7.03;1.40;;;;;;;27.62;22.80;95331.34;4935971;29;20066;-62
2021/05/10 09:24:32;;;;;;;5.43;1.20;;;;;;;27.85;22.98;95340.16;4935236;29;20511;-63
2021/05/10 09:26:57;;;;;;;4.80;1.40;;;;;;;27.00;23.88;95347.03;4935292;29;20039;-63
2021/05/10 09:29:26;;;;;;;4.90;1.20;;;;;;;26.83;23.92;95346.38;4935433;29;20043;-64
2021/05/10 09:31:51;;;;;;;4.22;1.20;;;;;;;26.87;24.07;95341.81;4935387;29;20087;-63
2021/05/10 09:34:22;;;;;;;6.20;1.45;;;;;;;26.83;23.44;95335.59;4936769;29;20055;-63
2021/05/10 09:36:47;;;;;;;5.60;1.20;;;;;;;26.46;24.89;95331.88;4935984;29;20106;-63
2021/05/10 09:39:27;;;;;;;4.35;1.20;;;;;;;26.53;23.97;95334.69;4935552;29;20496;-64
2021/05/10 09:42:05;;;;;;;5.13;1.55;;;;;;;26.09;25.30;95318.84;4935073;29;20123;-63
2021/05/10 09:44:40;;;;;;;5.85;1.70;;;;;;;26.20;25.33;95333.31;4935572;29;20063;-64
2021/05/10 09:47:06;;;;;;;5.88;1.40;;;;;;;26.29;25.76;95328.47;4939253;29;20453;-64
2021/05/10 09:49:45;;;;;;;6.15;1.25;;;;;;;26.19;25.69;95323.66;4937119;29;20103;-62
2021/05/10 09:52:19;;;;;;;6.18;1.55;;;;;;;26.16;25.91;95322.47;4938060;29;20571;-64
2021/05/10 09:54:53;;;;;;;5.38;1.30;;;;;;;26.18;25.99;95322.13;4937957;29;20407;-63
2021/05/10 09:57:21;;;;;;;5.78;1.60;;;;;;;26.08;26.05;95323.47;4938268;29;20121;-63
2021/05/10 10:00:14;;;;;;;6.00;1.50;;;;;;;26.20;26.52;95333.31;4936845;29;20063;-64
2021/05/10 10:02:40;;;;;;;4.72;1.20;;;;;;;26.24;26.18;95341.47;4937755;29;20423;-63
2021/05/10 10:05:08;;;;;;;4.47;1.30;;;;;;;26.16;25.50;95335.19;4936245;29;20095;-62
2021/05/10 10:07:37;;;;;;;6.10;1.45;;;;;;;26.16;25.96;95345.97;4936266;29;20412;-63
2021/05/10 10:10:03;;;;;;;4.38;1.33;;;;;;;26.29;25.73;95344.66;4938057;29;20075;-64
2021/05/10 10:12:29;;;;;;;5.18;1.20;;;;;;;26.32;24.98;95359.34;4937723;29;20523;-64
2021/05/10 10:14:55;;;;;;;4.28;1.30;;;;;;;26.47;25.26;95368.50;4938079;29;20047;-63
2021/05/10 10:17:21;;;;;;;5.28;1.50;;;;;;;27.00;24.34;95382.09;4937892;29;20043;-63
2021/05/10 10:19:48;;;;;;;5.65;1.40;;;;;;;26.78;25.43;95386.38;4952324;29;20479;-63
2021/05/10 10:22:21;;;;;;;6.68;1.50;;;;;;;26.95;25.91;95397.47;4937750;29;20070;-63
2021/05/10 10:24:50;;;;;;;4.20;1.20;;;;;;;27.06;24.26;95386.84;4937369;28;20051;-64
2021/05/10 10:27:17;;;;;;;8.55;1.60;;;;;;;26.90;25.47;95396.97;4937374;29;20122;-64
2021/05/10 10:29:45;;;;;;;4.57;1.30;;;;;;;26.82;25.65;95409.59;4937585;29;20040;-64
2021/05/10 10:32:18;;;;;;;8.25;1.40;;;;;;;26.83;24.97;95405.75;4937801;29;20067;-63
2021/05/10 10:34:47;;;;;;;3.60;1.10;;;;;;;26.84;24.41;95404.59;4937611;29;20499;-64
2021/05/10 10:37:16;;;;;;;5.57;1.67;;;;;;;27.02;25.40;95412.25;4936911;29;20050;-63
2021/05/10 10:39:49;;;;;;;7.47;1.55;;;;;;;27.16;25.08;95398.97;4937146;29;20082;-64
2021/05/10 10:42:22;;;;;;;5.13;1.40;;;;;;;27.29;24.90;95394.19;4935850;29;20071;-63
2021/05/10 10:44:53;;;;;;;7.90;2.05;;;;;;;27.44;24.78;95401.31;4938721;29;20075;-64
2021/05/10 10:47:43;;;;;;;4.90;1.63;;;;;;;27.15;24.56;95400.13;4938419;29;20106;-64
2021/05/10 10:50:10;;;;;;;5.38;1.40;;;;;;;27.33;24.87;95401.16;4937568;29;20103;-64
2021/05/10 10:52:50;;;;;;;4.55;1.48;;;;;;;27.53;24.73;95392.97;4937840;29;20079;-63
2021/05/10 10:55:19;;;;;;;4.38;1.30;;;;;;;27.67;24.02;95390.47;4938322;29;20039;-63
2021/05/10 10:57:45;;;;;;;5.97;1.75;;;;;;;27.78;24.42;95383.31;4936224;29;20130;-63
2021/05/10 11:00:16;;;;;;;5.90;1.67;;;;;;;27.60;23.59;95390.38;4937591;29;20067;-64
2021/05/10 11:02:44;;;;;;;7.32;2.00;;;;;;;27.82;23.73;95384.16;4937012;29;20099;-64
2021/05/10 11:05:12;;;;;;;4.93;1.40;;;;;;;27.77;22.92;95387.19;4936696;29;20036;-64
2021/05/10 11:07:51;;;;;;;6.45;1.75;;;;;;;27.78;23.49;95383.31;4937458;29;20067;-64
2021/05/10 11:10:43;;;;;;;8.68;1.70;;;;;;;27.65;24.24;95374.63;4935807;29;20048;-63
2021/05/10 11:13:09;;;;;;;7.18;1.67;;;;;;;28.12;22.68;95367.13;4951196;28;20053;-62
2021/05/10 11:15:45;;;;;;;6.35;1.90;;;;;;;28.16;22.76;95365.25;4936666;29;20062;-63
2021/05/10 11:18:14;;;;;;;5.13;1.40;;;;;;;28.07;23.60;95375.56;4937001;29;20058;-63
2021/05/10 11:20:42;;;;;;;4.88;1.48;;;;;;;27.83;23.14;95374.13;4935157;29;20050;-64
2021/05/10 11:23:31;;;;;;;5.60;1.50;;;;;;;28.21;22.91;95368.41;4936830;29;20047;-63
2021/05/10 11:25:58;;;;;;;4.88;1.20;;;;;;;28.27;23.39;95370.78;4936359;29;20123;-63
2021/05/10 11:28:42;;;;;;;;;;;;;;;28.19;22.43;95367.19;4936725;29;20126;-64
2021/05/10 11:31:10;;;;;;;7.43;1.63;;;;;;;28.38;22.96;95367.06;4951403;28;19923;-64
2021/05/10 11:34:15;;;;;;;4.82;1.60;;;;;;;28.48;22.48;95369.09;4936031;29;20481;-63
2021/05/10 11:36:51;;;;;;;5.32;1.80;;;;;;;28.18;23.76;95379.16;4936321;29;20043;-64
2021/05/10 11:39:23;;;;;;;5.22;1.52;;;;;;;27.73;26.20;95391.75;4935286;29;20128;-63
2021/05/10 11:41:50;;;;;;;5.60;1.83;;;;;;;27.45;28.05;95395.59;4936860;29;20132;-64